Archival Weather

Chicago O'Hare International

Chicago, Illinois (KORD)

Report from: Wednesday, March 27, 2024 11:51 AM CDT
Current time: Tuesday, May 21, 2024 11:27 AM CDT

Current weather – Weather history – Daily summaries
Weather forecast

Temperature1.7°C (35.1°F)
Wind chill-2.9°C (26.8°F)
Dew point-5.6°C (21.9°F)
Winds 10 kts (5.1 m/s, 11.5 mph) West-Southwest (250°)
Wind gusts 22 kts (11.3 m/s, 25.3 mph)
Visibility10 mi. (16.1 km)
Clouds Ceiling: Broken clouds 3,100 ft. (945 m)
Altimeter30.04 in.Hg (1017 mB)
Relative humidity58 %
Density altitude-1,716 ft. (-523 m)
Sea-level pressure101.8 kPa (1018 mB, 30.06 in.Hg)
Remarks Automated weather observing station with precipitation discriminator
Flight conditions Visual Meteorological Conditions
Raw dataKORD 271651Z 25010G22KT 10SM BKN031 02/M06 A3004 RMK AO2 SLP180 T00171056
An error has occurred. This application may no longer respond until reloaded. Reload 🗙